Details From LFPO - Paris Orly
To TNCM - St Maarten - Princess Juliana Intl
Flight Number -
Tags Generated
Created
Modified
Stats Distance 3,632 nm / 6,726 km
Max Altitude 0 ft / 0 m
Waypoints 4
Social Downloads 3
Likes 0
Share VATSIM

Download

Looking for another format? Having issues loading an existing format? Contact us
Advertisement - Login to hide

Notes

Generated

Route

LFPO GSG MNOLO TNCM

ID Type Via Altitude Latitude Longitude Leg Dist Tot Dist Heading (true) Name
O LFPO APT - 0 ft / 0 m 48.71772˚ 2.37681˚ - 0 nm - -
GSG NDB - 0 ft / 0 m 48.16000˚ -3.60250˚ 240 nm 240 nm 264° / 260° Guiscriff Scaer NDB
MNOLO FIX - 0 ft / 0 m 18.34556˚ -62.80211˚ 3365 nm 3605 nm 259° / 224° -
O TNCM APT - 0 ft / 0 m 18.03937˚ -63.11961˚ 25 nm 3631 nm 225° / 225° -

Altitude Profile

Advertisement - Login to hide

Weather


0- 5 10 15 20 25 30 35+ Temperature / ° C

Clouds and Precipitation
Forecast for 2018-05-20 18:00 UTC. Updated 35 minutes ago

Ground ~20,000 ft ~40,000 ft Winds

LFPO

Details ICAO LFPO (ORY)
Name Paris Orly
Region France
Timezone Europe/Paris (UTC+2.0)
Stats Elevation 291 ft / 89 m (AMSL)
Location 48.726360° 2.367029°
Runways 3
Magnetic Variation 0.657° E

METAR

LFPO 201730Z 04008KT 350V080 9999 FEW060 FEW066TCU 22/08 Q1016 NOSIG

Decode

TAF

TAF LFPO 201700Z 2018/2124 03008KT CAVOK PROB40 TEMPO 2018/2022 -SHRA SCT060TCU TEMPO 2109/2124 -SHRA SCT035TCU PROB30 TEMPO 2112/2121 -TSRA SCT035CB PROB40 TEMPO 2116/2121 30012G22KT TSRA BKN035CB

Decode

Departure Runways

ID Width Length Bearing (true) Bearing (mag) Surface Threshold Offset Overrun Length
02 197 ft / 60 m 7,873 ft / 2,400 m 18.29° 17.63° Concrete 0 ft / 0 m 0 ft / 0 m
06 148 ft / 45 m 11,952 ft / 3,643 m 61.78° 61.12° Asphalt 984 ft / 300 m 197 ft / 60 m
08 148 ft / 45 m 10,868 ft / 3,313 m 74.36° 73.70° Concrete 0 ft / 0 m 1,050 ft / 320 m
20 197 ft / 60 m 7,873 ft / 2,400 m 198.30° 197.64° Concrete 0 ft / 0 m 0 ft / 0 m
24 148 ft / 45 m 11,952 ft / 3,643 m 241.81° 241.15° Asphalt 0 ft / 0 m 197 ft / 60 m
26 148 ft / 45 m 10,868 ft / 3,313 m 254.39° 253.73° Concrete 1,427 ft / 435 m 0 ft / 0 m

TNCM

Details ICAO TNCM (SXM)
Name St Maarten - Princess Juliana Intl
Region Caribbean Netherlands, Aruba, Curaçao, Sint Maarten
Timezone Unknown (UTC+0.0)
Stats Elevation 12 ft / 4 m (AMSL)
Location 18.040889° -63.108974°
Runways 1
Magnetic Variation 14.337° W

METAR

TNCM 201700Z 09011KT 9999 FEW018 29/20 Q1018 A3006 NOSIG

Decode

TAF

TAF TNCM 201720Z 2018/2118 08017KT P6SM VCSH SCT020 FM202300 09010KT P6SM VCSH SCT018

Decode

Destination Runways

ID Width Length Bearing (true) Bearing (mag) Surface Threshold Offset Overrun Length
10 148 ft / 45 m 7,464 ft / 2,275 m 81.43° 95.77° Asphalt 0 ft / 0 m 151 ft / 46 m
28 148 ft / 45 m 7,464 ft / 2,275 m 261.44° 275.78° Asphalt 397 ft / 121 m 0 ft / 0 m

Popular Alternatives